Fort Lauderdale Executive Airport
KFXE : rendu visible

Aérodrome :











RETROUVEZ-NOUS SUR...

 
LOGIN :

S'inscrire | Disclaimer

   EN    FR    IT 

 









Légende :    VFR   VFR Marginal   IFR   IFR Intensif   IFR Très Intensif
Visi : 
Plafond : 
>= 8 km
>= 3000ft
5 à 8 km
1000 à 3000 ft
1500m à 5 km
500 à 1000 ft
800 à 1500m
200 à 500 ft
< 800m
< 200 ft
Symboles :   Orages  Brouillard  Fortes neiges  Fortes précipitations  Vent > 20 kt






- Altitude de l'aérodrome : 13 ft


KFXE - Fort Lauderdale Executive

DERNIER METAR :
  • 261653Z 18011KT 10SM VCTS CLR 30/22 A2990 RMK AO2 PK WND 23026/1613 LTG DSNT E SLP128 T03000217

METARs EXPIRÉS :
  • 261635Z 20014KT 10SM VCTS FEW034 30/22 A2991 RMK AO2 PK WND 23026/1613 T03000217
  • 261553Z 21014G20KT 10SM SCT032 32/24 A2989 RMK AO2 LTG DSNT S SLP125 T03170239
  • 261453Z 19009KT 10SM SCT030 31/24 A2989 RMK AO2 SLP124 T03060239 51006

TAF KFXE
Valide du 26 à 16h jusqu'au 27 à 12h UTC


261606Z 2616/2712 21013KT P6SM VCTS SCT025CB BKN035
TEMPO 2617/2621 VRB15G25KT 3SM TSRA BKN025CB
FM270200 18006KT P6SM SCT020 BKN035
FIR KZMA / Amérique du Nord



MET'MAP, la Météo Aéronautique d'un coup d'oeil ! - Copyright ORBIFLY Décembre 2007 - Disclaimer

ORBIFLY MET'MAP TEAM :

Programmation & Développement : Alexandra Zaïnal
Sur une idée originale de : Baudouin d'Aumeries
Assistance à la programmation : Marc-Olivier Méhu
Soutien technique & logistique : Manuel Goepfert

Contact : metmap@orbifly.com




SOURCES & CREDITS :

   NOAA       Earth
Advisory